sensor_id;sensor_type;location;lat;lon;timestamp;pressure;altitude;pressure_sealevel;temperature;humidity
75414;BME280;64758;52.122;5.404;2022-12-18T00:01:12;103157.44;;;-3.02;100.00
75414;BME280;64758;52.122;5.404;2022-12-18T00:03:40;103152.28;;;-3.04;100.00
75414;BME280;64758;52.122;5.404;2022-12-18T00:06:08;103141.09;;;-3.06;100.00
75414;BME280;64758;52.122;5.404;2022-12-18T00:08:35;103137.50;;;-3.02;100.00
75414;BME280;64758;52.122;5.404;2022-12-18T00:11:05;103131.44;;;-3.02;99.73
75414;BME280;64758;52.122;5.404;2022-12-18T00:13:33;103122.03;;;-3.06;99.94
75414;BME280;64758;52.122;5.404;2022-12-18T00:16:04;103129.81;;;-3.06;100.00
75414;BME280;64758;52.122;5.404;2022-12-18T00:18:32;103126.47;;;-3.10;99.71
75414;BME280;64758;52.122;5.404;2022-12-18T00:21:00;103120.59;;;-3.16;99.49
75414;BME280;64758;52.122;5.404;2022-12-18T00:23:28;103130.97;;;-3.16;99.78
75414;BME280;64758;52.122;5.404;2022-12-18T00:25:54;103130.97;;;-3.16;100.00
75414;BME280;64758;52.122;5.404;2022-12-18T00:28:21;103139.00;;;-3.24;99.89
75414;BME280;64758;52.122;5.404;2022-12-18T00:30:47;103147.78;;;-3.28;99.52
75414;BME280;64758;52.122;5.404;2022-12-18T00:33:17;103141.72;;;-3.28;100.00
75414;BME280;64758;52.122;5.404;2022-12-18T00:35:44;103131.28;;;-3.27;100.00
75414;BME280;64758;52.122;5.404;2022-12-18T00:38:10;103133.00;;;-3.26;99.96
75414;BME280;64758;52.122;5.404;2022-12-18T00:40:37;103134.81;;;-3.29;99.68
75414;BME280;64758;52.122;5.404;2022-12-18T00:43:03;103133.97;;;-3.30;99.77
75414;BME280;64758;52.122;5.404;2022-12-18T00:45:31;103127.16;;;-3.34;99.72
75414;BME280;64758;52.122;5.404;2022-12-18T00:47:58;103125.38;;;-3.32;99.57
75414;BME280;64758;52.122;5.404;2022-12-18T00:50:25;103122.84;;;-3.35;99.11
75414;BME280;64758;52.122;5.404;2022-12-18T00:52:51;103129.88;;;-3.38;99.61
75414;BME280;64758;52.122;5.404;2022-12-18T00:55:18;103125.66;;;-3.42;99.73
75414;BME280;64758;52.122;5.404;2022-12-18T00:57:45;103136.75;;;-3.37;99.19
75414;BME280;64758;52.122;5.404;2022-12-18T01:00:13;103135.22;;;-3.44;99.65
75414;BME280;64758;52.122;5.404;2022-12-18T01:02:40;103135.44;;;-3.52;99.53
75414;BME280;64758;52.122;5.404;2022-12-18T01:05:10;103123.34;;;-3.53;100.00
75414;BME280;64758;52.122;5.404;2022-12-18T01:07:39;103125.81;;;-3.48;100.00
75414;BME280;64758;52.122;5.404;2022-12-18T01:10:07;103113.78;;;-3.51;100.00
75414;BME280;64758;52.122;5.404;2022-12-18T01:12:33;103115.50;;;-3.50;100.00
75414;BME280;64758;52.122;5.404;2022-12-18T01:15:00;103123.28;;;-3.50;99.87
75414;BME280;64758;52.122;5.404;2022-12-18T01:17:27;103120.72;;;-3.51;99.72
75414;BME280;64758;52.122;5.404;2022-12-18T01:19:53;103124.03;;;-3.46;99.40
75414;BME280;64758;52.122;5.404;2022-12-18T01:22:20;103117.19;;;-3.49;99.65
75414;BME280;64758;52.122;5.404;2022-12-18T01:24:46;103120.53;;;-3.45;100.00
75414;BME280;64758;52.122;5.404;2022-12-18T01:27:13;103128.47;;;-3.50;99.56
75414;BME280;64758;52.122;5.404;2022-12-18T01:29:40;103133.75;;;-3.53;99.84
75414;BME280;64758;52.122;5.404;2022-12-18T01:32:06;103132.84;;;-3.52;99.54
75414;BME280;64758;52.122;5.404;2022-12-18T01:34:33;103135.31;;;-3.47;99.27
75414;BME280;64758;52.122;5.404;2022-12-18T01:37:03;103138.00;;;-3.50;99.68
75414;BME280;64758;52.122;5.404;2022-12-18T01:39:29;103140.75;;;-3.56;99.59
75414;BME280;64758;52.122;5.404;2022-12-18T01:41:56;103136.75;;;-3.68;99.26
75414;BME280;64758;52.122;5.404;2022-12-18T01:44:57;103142.00;;;-3.71;99.30
75414;BME280;64758;52.122;5.404;2022-12-18T01:47:41;103154.19;;;-3.74;99.16
75414;BME280;64758;52.122;5.404;2022-12-18T01:52:42;103138.78;;;-3.80;99.77
75414;BME280;64758;52.122;5.404;2022-12-18T01:55:11;103146.69;;;-3.83;99.95
75414;BME280;64758;52.122;5.404;2022-12-18T01:57:39;103145.94;;;-3.88;99.95
75414;BME280;64758;52.122;5.404;2022-12-18T02:00:15;103140.84;;;-3.91;99.51
75414;BME280;64758;52.122;5.404;2022-12-18T02:02:43;103156.41;;;-3.91;99.44
75414;BME280;64758;52.122;5.404;2022-12-18T02:05:13;103152.19;;;-3.95;99.89
75414;BME280;64758;52.122;5.404;2022-12-18T02:10:54;103149.81;;;-4.05;99.22
75414;BME280;64758;52.122;5.404;2022-12-18T02:13:41;103149.91;;;-4.08;99.56
75414;BME280;64758;52.122;5.404;2022-12-18T02:18:45;103152.84;;;-4.22;98.83
75414;BME280;64758;52.122;5.404;2022-12-18T02:23:56;103157.34;;;-4.30;99.28
75414;BME280;64758;52.122;5.404;2022-12-18T02:26:40;103154.84;;;-4.33;98.47
75414;BME280;64758;52.122;5.404;2022-12-18T02:29:32;103156.69;;;-4.38;99.23
75414;BME280;64758;52.122;5.404;2022-12-18T02:32:03;103165.41;;;-4.42;97.96
75414;BME280;64758;52.122;5.404;2022-12-18T02:34:37;103168.91;;;-4.44;98.49
75414;BME280;64758;52.122;5.404;2022-12-18T02:37:06;103158.53;;;-4.44;98.02
75414;BME280;64758;52.122;5.404;2022-12-18T02:39:36;103143.19;;;-4.52;98.83
75414;BME280;64758;52.122;5.404;2022-12-18T02:42:04;103147.59;;;-4.57;98.65
75414;BME280;64758;52.122;5.404;2022-12-18T02:44:41;103145.09;;;-4.60;99.38
75414;BME280;64758;52.122;5.404;2022-12-18T02:47:10;103136.50;;;-4.62;98.39
75414;BME280;64758;52.122;5.404;2022-12-18T02:58:10;103141.81;;;-4.69;97.94
75414;BME280;64758;52.122;5.404;2022-12-18T03:01:07;103139.34;;;-4.74;97.87
75414;BME280;64758;52.122;5.404;2022-12-18T03:03:42;103133.41;;;-4.79;99.35
75414;BME280;64758;52.122;5.404;2022-12-18T03:06:24;103129.13;;;-4.80;98.02
75414;BME280;64758;52.122;5.404;2022-12-18T03:08:56;103123.13;;;-4.83;98.92
75414;BME280;64758;52.122;5.404;2022-12-18T03:11:25;103120.59;;;-4.85;97.79
75414;BME280;64758;52.122;5.404;2022-12-18T03:14:15;103108.59;;;-4.89;98.72
75414;BME280;64758;52.122;5.404;2022-12-18T03:16:44;103115.56;;;-4.92;97.51
75414;BME280;64758;52.122;5.404;2022-12-18T03:19:15;103125.16;;;-4.96;97.88
75414;BME280;64758;52.122;5.404;2022-12-18T03:21:47;103119.22;;;-5.01;97.69
75414;BME280;64758;52.122;5.404;2022-12-18T03:24:17;103120.09;;;-5.02;97.05
75414;BME280;64758;52.122;5.404;2022-12-18T03:26:48;103109.09;;;-5.12;97.61
75414;BME280;64758;52.122;5.404;2022-12-18T03:29:21;103103.97;;;-5.14;97.65
75414;BME280;64758;52.122;5.404;2022-12-18T03:31:55;103099.75;;;-5.19;98.48
75414;BME280;64758;52.122;5.404;2022-12-18T03:34:28;103104.94;;;-5.19;98.30
75414;BME280;64758;52.122;5.404;2022-12-18T03:36:56;103093.06;;;-5.29;98.09
75414;BME280;64758;52.122;5.404;2022-12-18T03:39:24;103099.09;;;-5.29;98.52
75414;BME280;64758;52.122;5.404;2022-12-18T03:44:44;103091.34;;;-5.30;97.99
75414;BME280;64758;52.122;5.404;2022-12-18T03:47:21;103094.81;;;-5.30;97.12
75414;BME280;64758;52.122;5.404;2022-12-18T03:50:00;103078.53;;;-5.36;98.15
75414;BME280;64758;52.122;5.404;2022-12-18T03:52:51;103088.06;;;-5.38;97.55
75414;BME280;64758;52.122;5.404;2022-12-18T03:55:20;103083.00;;;-5.43;97.30
75414;BME280;64758;52.122;5.404;2022-12-18T03:57:48;103088.06;;;-5.38;97.05
75414;BME280;64758;52.122;5.404;2022-12-18T04:00:22;103082.19;;;-5.45;97.52
75414;BME280;64758;52.122;5.404;2022-12-18T04:02:53;103078.78;;;-5.47;97.55
75414;BME280;64758;52.122;5.404;2022-12-18T04:05:22;103074.50;;;-5.49;96.78
75414;BME280;64758;52.122;5.404;2022-12-18T04:07:51;103074.44;;;-5.46;96.80
75414;BME280;64758;52.122;5.404;2022-12-18T04:10:18;103074.44;;;-5.46;97.20
75414;BME280;64758;52.122;5.404;2022-12-18T04:12:45;103066.72;;;-5.49;96.44
75414;BME280;64758;52.122;5.404;2022-12-18T04:15:12;103068.47;;;-5.50;96.32
75414;BME280;64758;52.122;5.404;2022-12-18T04:17:47;103060.78;;;-5.53;96.47
75414;BME280;64758;52.122;5.404;2022-12-18T04:20:14;103057.31;;;-5.53;96.62
75414;BME280;64758;52.122;5.404;2022-12-18T04:22:41;103047.84;;;-5.54;96.61
75414;BME280;64758;52.122;5.404;2022-12-18T04:25:08;103055.59;;;-5.53;97.62
75414;BME280;64758;52.122;5.404;2022-12-18T04:27:34;103054.78;;;-5.56;96.79
75414;BME280;64758;52.122;5.404;2022-12-18T04:30:01;103052.25;;;-5.58;96.49
75414;BME280;64758;52.122;5.404;2022-12-18T04:32:27;103053.03;;;-5.54;96.72
75414;BME280;64758;52.122;5.404;2022-12-18T04:34:54;103048.78;;;-5.58;97.91
75414;BME280;64758;52.122;5.404;2022-12-18T04:37:21;103051.38;;;-5.57;97.52
75414;BME280;64758;52.122;5.404;2022-12-18T04:39:47;103052.19;;;-5.55;97.11
75414;BME280;64758;52.122;5.404;2022-12-18T04:42:13;103046.19;;;-5.57;97.93
75414;BME280;64758;52.122;5.404;2022-12-18T04:44:40;103054.78;;;-5.56;97.39
75414;BME280;64758;52.122;5.404;2022-12-18T04:47:06;103065.06;;;-5.53;97.58
75414;BME280;64758;52.122;5.404;2022-12-18T04:49:33;103081.38;;;-5.48;98.34
75414;BME280;64758;52.122;5.404;2022-12-18T04:52:00;103079.66;;;-5.49;97.76
75414;BME280;64758;52.122;5.404;2022-12-18T04:54:26;103083.91;;;-5.45;98.23
75414;BME280;64758;52.122;5.404;2022-12-18T04:56:53;103083.88;;;-5.44;96.77
75414;BME280;64758;52.122;5.404;2022-12-18T04:59:20;103089.94;;;-5.45;98.01
75414;BME280;64758;52.122;5.404;2022-12-18T05:01:46;103082.19;;;-5.46;97.24
75414;BME280;64758;52.122;5.404;2022-12-18T05:04:13;103094.13;;;-5.39;97.82
75414;BME280;64758;52.122;5.404;2022-12-18T05:06:40;103095.94;;;-5.43;98.14
75414;BME280;64758;52.122;5.404;2022-12-18T05:09:06;103107.06;;;-5.39;98.19
75414;BME280;64758;52.122;5.404;2022-12-18T05:11:33;103103.66;;;-5.41;97.36
75414;BME280;64758;52.122;5.404;2022-12-18T05:13:59;103103.66;;;-5.41;97.07
75414;BME280;64758;52.122;5.404;2022-12-18T05:16:25;103100.25;;;-5.43;98.48
75414;BME280;64758;52.122;5.404;2022-12-18T05:18:52;103110.53;;;-5.40;96.92
75414;BME280;64758;52.122;5.404;2022-12-18T05:21:18;103103.75;;;-5.46;98.07
75414;BME280;64758;52.122;5.404;2022-12-18T05:23:45;103107.19;;;-5.45;97.38
75414;BME280;64758;52.122;5.404;2022-12-18T05:26:15;103115.84;;;-5.46;96.91
75414;BME280;64758;52.122;5.404;2022-12-18T05:28:42;103129.66;;;-5.47;96.59
75414;BME280;64758;52.122;5.404;2022-12-18T05:31:10;103123.72;;;-5.52;97.60
75414;BME280;64758;52.122;5.404;2022-12-18T05:33:36;103127.19;;;-5.52;96.85
75414;BME280;64758;52.122;5.404;2022-12-18T05:36:06;103130.69;;;-5.56;97.42
75414;BME280;64758;52.122;5.404;2022-12-18T05:38:34;103123.84;;;-5.58;97.07
75414;BME280;64758;52.122;5.404;2022-12-18T05:41:03;103127.34;;;-5.61;97.06
75414;BME280;64758;52.122;5.404;2022-12-18T05:43:29;103109.25;;;-5.62;96.08
75414;BME280;64758;52.122;5.404;2022-12-18T05:45:56;103119.53;;;-5.59;95.87
75414;BME280;64758;52.122;5.404;2022-12-18T05:48:23;103103.19;;;-5.61;96.48
75414;BME280;64758;52.122;5.404;2022-12-18T05:50:50;103104.06;;;-5.62;97.13
75414;BME280;64758;52.122;5.404;2022-12-18T05:53:19;103098.13;;;-5.66;97.26
75414;BME280;64758;52.122;5.404;2022-12-18T05:55:46;103098.91;;;-5.62;97.20
75414;BME280;64758;52.122;5.404;2022-12-18T05:58:13;103098.06;;;-5.63;96.95
75414;BME280;64758;52.122;5.404;2022-12-18T06:00:42;103092.94;;;-5.67;96.99
75414;BME280;64758;52.122;5.404;2022-12-18T06:03:10;103082.66;;;-5.70;95.98
75414;BME280;64758;52.122;5.404;2022-12-18T06:05:40;103084.34;;;-5.68;97.50
75414;BME280;64758;52.122;5.404;2022-12-18T06:08:07;103086.06;;;-5.68;96.55
75414;BME280;64758;52.122;5.404;2022-12-18T06:10:34;103088.66;;;-5.68;97.62
75414;BME280;64758;52.122;5.404;2022-12-18T06:13:00;103083.53;;;-5.71;96.60
75414;BME280;64758;52.122;5.404;2022-12-18T06:15:27;103074.97;;;-5.73;96.33
75414;BME280;64758;52.122;5.404;2022-12-18T06:17:53;103073.25;;;-5.73;96.15
75414;BME280;64758;52.122;5.404;2022-12-18T06:20:20;103075.81;;;-5.73;96.57
75414;BME280;64758;52.122;5.404;2022-12-18T06:22:46;103069.00;;;-5.77;96.25
75414;BME280;64758;52.122;5.404;2022-12-18T06:25:13;103071.56;;;-5.75;95.71
75414;BME280;64758;52.122;5.404;2022-12-18T06:27:40;103064.75;;;-5.79;95.67
75414;BME280;64758;52.122;5.404;2022-12-18T06:30:08;103065.63;;;-5.79;95.91
75414;BME280;64758;52.122;5.404;2022-12-18T06:32:34;103062.28;;;-5.84;96.95
75414;BME280;64758;52.122;5.404;2022-12-18T06:35:01;103056.22;;;-5.84;96.28
75414;BME280;64758;52.122;5.404;2022-12-18T06:37:27;103051.06;;;-5.84;95.82
75414;BME280;64758;52.122;5.404;2022-12-18T06:39:54;103051.06;;;-5.84;96.20
75414;BME280;64758;52.122;5.404;2022-12-18T06:42:23;103063.16;;;-5.86;95.70
75414;BME280;64758;52.122;5.404;2022-12-18T06:44:50;103059.81;;;-5.91;95.95
75414;BME280;64758;52.122;5.404;2022-12-18T06:47:16;103040.94;;;-5.95;96.22
75414;BME280;64758;52.122;5.404;2022-12-18T06:49:43;103044.41;;;-5.97;96.12
75414;BME280;64758;52.122;5.404;2022-12-18T06:52:09;103036.72;;;-6.00;95.99
75414;BME280;64758;52.122;5.404;2022-12-18T06:54:36;103040.16;;;-6.00;95.66
75414;BME280;64758;52.122;5.404;2022-12-18T06:57:02;103042.75;;;-6.01;95.21
75414;BME280;64758;52.122;5.404;2022-12-18T06:59:29;103035.00;;;-6.01;96.18
75414;BME280;64758;52.122;5.404;2022-12-18T07:01:55;103022.19;;;-6.07;95.71
75414;BME280;64758;52.122;5.404;2022-12-18T07:04:27;103020.47;;;-6.07;95.98
75414;BME280;64758;52.122;5.404;2022-12-18T07:06:54;103021.41;;;-6.11;95.12
75414;BME280;64758;52.122;5.404;2022-12-18T07:09:20;103019.69;;;-6.12;95.48
75414;BME280;64758;52.122;5.404;2022-12-18T07:11:47;103022.28;;;-6.12;96.13
75414;BME280;64758;52.122;5.404;2022-12-18T07:14:13;103029.16;;;-6.12;95.10
75414;BME280;64758;52.122;5.404;2022-12-18T07:16:40;103003.41;;;-6.17;95.92
75414;BME280;64758;52.122;5.404;2022-12-18T07:19:07;102999.13;;;-6.19;95.08
75414;BME280;64758;52.122;5.404;2022-12-18T07:21:33;103005.19;;;-6.20;95.74
75414;BME280;64758;52.122;5.404;2022-12-18T07:24:00;103006.06;;;-6.20;95.54
75414;BME280;64758;52.122;5.404;2022-12-18T07:26:26;103003.38;;;-6.15;95.85
75414;BME280;64758;52.122;5.404;2022-12-18T07:28:56;103010.31;;;-6.17;94.94
75414;BME280;64758;52.122;5.404;2022-12-18T07:31:24;103008.59;;;-6.17;95.85
75414;BME280;64758;52.122;5.404;2022-12-18T07:33:51;102991.38;;;-6.19;95.66
75414;BME280;64758;52.122;5.404;2022-12-18T07:36:19;103000.78;;;-6.15;94.96
75414;BME280;64758;52.122;5.404;2022-12-18T07:38:49;102998.22;;;-6.15;95.07
75414;BME280;64758;52.122;5.404;2022-12-18T07:41:16;102994.78;;;-6.16;95.65
75414;BME280;64758;52.122;5.404;2022-12-18T07:43:42;102991.38;;;-6.19;95.99
75414;BME280;64758;52.122;5.404;2022-12-18T07:46:10;102987.03;;;-6.17;95.90
75414;BME280;64758;52.122;5.404;2022-12-18T07:48:39;102981.03;;;-6.18;95.99
75414;BME280;64758;52.122;5.404;2022-12-18T07:51:06;102970.66;;;-6.16;95.15
75414;BME280;64758;52.122;5.404;2022-12-18T07:53:35;102973.16;;;-6.12;96.02
75414;BME280;64758;52.122;5.404;2022-12-18T07:56:05;102966.31;;;-6.14;95.17
75414;BME280;64758;52.122;5.404;2022-12-18T07:58:52;102961.91;;;-6.09;95.83
75414;BME280;64758;52.122;5.404;2022-12-18T08:01:18;102959.31;;;-6.08;95.83
75414;BME280;64758;52.122;5.404;2022-12-18T08:03:46;102959.38;;;-6.12;95.53
75414;BME280;64758;52.122;5.404;2022-12-18T08:06:13;102955.03;;;-6.10;95.12
75414;BME280;64758;52.122;5.404;2022-12-18T08:08:40;102952.38;;;-6.06;96.01
75414;BME280;64758;52.122;5.404;2022-12-18T08:11:08;102950.47;;;-5.98;96.30
75414;BME280;64758;52.122;5.404;2022-12-18T08:13:34;102946.97;;;-5.95;95.42
75414;BME280;64758;52.122;5.404;2022-12-18T08:16:04;102959.81;;;-5.91;95.40
75414;BME280;64758;52.122;5.404;2022-12-18T08:18:36;102955.47;;;-5.90;95.89
75414;BME280;64758;52.122;5.404;2022-12-18T08:21:09;102954.53;;;-5.85;95.59
75414;BME280;64758;52.122;5.404;2022-12-18T08:23:37;102941.59;;;-5.85;95.88
75414;BME280;64758;52.122;5.404;2022-12-18T08:26:08;102951.81;;;-5.79;96.00
75414;BME280;64758;52.122;5.404;2022-12-18T08:28:35;102968.00;;;-5.72;95.61
75414;BME280;64758;52.122;5.404;2022-12-18T08:31:02;102980.94;;;-5.71;95.55
75414;BME280;64758;52.122;5.404;2022-12-18T08:33:28;102986.88;;;-5.67;95.12
75414;BME280;64758;52.122;5.404;2022-12-18T08:35:55;102991.09;;;-5.63;95.18
75414;BME280;64758;52.122;5.404;2022-12-18T08:38:21;102987.56;;;-5.59;95.74
75414;BME280;64758;52.122;5.404;2022-12-18T08:40:49;102972.03;;;-5.58;95.16
75414;BME280;64758;52.122;5.404;2022-12-18T08:43:15;102973.81;;;-5.60;96.68
75414;BME280;64758;52.122;5.404;2022-12-18T08:46:17;102953.00;;;-5.55;95.79
75414;BME280;64758;52.122;5.404;2022-12-18T08:48:45;102959.72;;;-5.48;96.14
75414;BME280;64758;52.122;5.404;2022-12-18T08:51:11;102964.03;;;-5.47;95.67
75414;BME280;64758;52.122;5.404;2022-12-18T08:53:38;102960.56;;;-5.46;95.76
75414;BME280;64758;52.122;5.404;2022-12-18T08:56:06;102956.06;;;-5.38;96.40
75414;BME280;64758;52.122;5.404;2022-12-18T08:58:32;102949.88;;;-5.31;95.14
75414;BME280;64758;52.122;5.404;2022-12-18T09:01:03;102962.59;;;-5.21;95.68
75414;BME280;64758;52.122;5.404;2022-12-18T09:03:31;102986.59;;;-5.14;95.93
75414;BME280;64758;52.122;5.404;2022-12-18T09:05:57;102977.09;;;-5.15;96.76
75414;BME280;64758;52.122;5.404;2022-12-18T09:08:24;102981.19;;;-5.05;96.67
75414;BME280;64758;52.122;5.404;2022-12-18T09:10:51;102958.66;;;-5.02;96.63
75414;BME280;64758;52.122;5.404;2022-12-18T09:13:18;102958.41;;;-4.92;95.81
75414;BME280;64758;52.122;5.404;2022-12-18T09:15:47;102957.25;;;-4.80;96.09
75414;BME280;64758;52.122;5.404;2022-12-18T09:18:15;102962.19;;;-4.70;95.59
75414;BME280;64758;52.122;5.404;2022-12-18T09:20:42;102961.06;;;-4.60;96.19
75414;BME280;64758;52.122;5.404;2022-12-18T09:23:09;102952.25;;;-4.54;95.71
75414;BME280;64758;52.122;5.404;2022-12-18T09:25:37;102962.31;;;-4.42;96.52
75414;BME280;64758;52.122;5.404;2022-12-18T09:30:38;102956.78;;;-4.29;96.93
75414;BME280;64758;52.122;5.404;2022-12-18T09:33:05;102961.66;;;-4.17;96.70
75414;BME280;64758;52.122;5.404;2022-12-18T09:35:32;102951.06;;;-4.09;96.46
75414;BME280;64758;52.122;5.404;2022-12-18T09:38:02;102937.84;;;-4.00;95.71
75414;BME280;64758;52.122;5.404;2022-12-18T09:40:34;102941.03;;;-3.91;96.07
75414;BME280;64758;52.122;5.404;2022-12-18T09:43:04;102938.13;;;-3.80;96.34
75414;BME280;64758;52.122;5.404;2022-12-18T09:45:41;102922.41;;;-3.76;96.08
75414;BME280;64758;52.122;5.404;2022-12-18T09:48:28;102932.44;;;-3.64;95.50
75414;BME280;64758;52.122;5.404;2022-12-18T09:51:03;102921.84;;;-3.58;96.40
75414;BME280;64758;52.122;5.404;2022-12-18T09:53:33;102910.38;;;-3.51;95.69
75414;BME280;64758;52.122;5.404;2022-12-18T09:56:03;102906.59;;;-3.40;95.91
75414;BME280;64758;52.122;5.404;2022-12-18T09:58:36;102899.34;;;-3.30;96.25
75414;BME280;64758;52.122;5.404;2022-12-18T10:01:16;102916.44;;;-3.23;95.45
75414;BME280;64758;52.122;5.404;2022-12-18T10:03:44;102910.06;;;-3.13;95.49
75414;BME280;64758;52.122;5.404;2022-12-18T10:06:20;102905.53;;;-3.07;95.76
75414;BME280;64758;52.122;5.404;2022-12-18T10:09:06;102902.66;;;-2.99;95.59
75414;BME280;64758;52.122;5.404;2022-12-18T10:11:46;102901.56;;;-2.92;95.47
75414;BME280;64758;52.122;5.404;2022-12-18T10:17:25;102887.75;;;-2.68;95.21
75414;BME280;64758;52.122;5.404;2022-12-18T10:19:57;102890.84;;;-2.57;95.60
75414;BME280;64758;52.122;5.404;2022-12-18T10:25:25;102892.09;;;-2.45;95.42
75414;BME280;64758;52.122;5.404;2022-12-18T10:27:57;102898.09;;;-2.43;94.79
75414;BME280;64758;52.122;5.404;2022-12-18T10:30:26;102896.09;;;-2.35;94.44
75414;BME280;64758;52.122;5.404;2022-12-18T10:32:53;102896.00;;;-2.33;94.59
75414;BME280;64758;52.122;5.404;2022-12-18T10:35:25;102866.47;;;-2.31;94.23
75414;BME280;64758;52.122;5.404;2022-12-18T10:51:28;102857.97;;;-1.90;93.07
75414;BME280;64758;52.122;5.404;2022-12-18T10:56:44;102850.50;;;-1.76;93.34
75414;BME280;64758;52.122;5.404;2022-12-18T10:59:16;102848.56;;;-1.71;93.46
75414;BME280;64758;52.122;5.404;2022-12-18T11:04:31;102840.28;;;-1.59;92.21
75414;BME280;64758;52.122;5.404;2022-12-18T11:06:58;102837.47;;;-1.54;92.08
75414;BME280;64758;52.122;5.404;2022-12-18T11:09:28;102822.75;;;-1.55;91.73
75414;BME280;64758;52.122;5.404;2022-12-18T11:12:03;102816.47;;;-1.50;91.48
75414;BME280;64758;52.122;5.404;2022-12-18T11:14:34;102818.69;;;-1.41;92.25
75414;BME280;64758;52.122;5.404;2022-12-18T11:17:20;102822.88;;;-1.37;90.92
75414;BME280;64758;52.122;5.404;2022-12-18T11:20:46;102820.94;;;-1.32;91.39
75414;BME280;64758;52.122;5.404;2022-12-18T11:23:01;102811.09;;;-1.26;91.79
75414;BME280;64758;52.122;5.404;2022-12-18T11:25:30;102799.50;;;-1.19;91.45
75414;BME280;64758;52.122;5.404;2022-12-18T11:28:01;102800.06;;;-1.12;89.87
75414;BME280;64758;52.122;5.404;2022-12-18T11:30:33;102795.66;;;-1.10;91.04
75414;BME280;64758;52.122;5.404;2022-12-18T11:33:04;102794.47;;;-1.03;90.83
75414;BME280;64758;52.122;5.404;2022-12-18T11:35:39;102803.88;;;-0.99;89.65
75414;BME280;64758;52.122;5.404;2022-12-18T11:38:32;102799.56;;;-1.00;89.71
75414;BME280;64758;52.122;5.404;2022-12-18T11:41:04;102799.31;;;-0.94;89.02
75414;BME280;64758;52.122;5.404;2022-12-18T11:46:45;102801.38;;;-0.82;88.15
75414;BME280;64758;52.122;5.404;2022-12-18T11:54:15;102787.00;;;-0.71;88.72
75414;BME280;64758;52.122;5.404;2022-12-18T11:56:56;102779.84;;;-0.67;88.64
75414;BME280;64758;52.122;5.404;2022-12-18T12:10:23;102737.72;;;-0.58;87.58
75414;BME280;64758;52.122;5.404;2022-12-18T12:13:03;102734.97;;;-0.55;87.58
75414;BME280;64758;52.122;5.404;2022-12-18T12:24:20;102725.75;;;-0.44;86.20
75414;BME280;64758;52.122;5.404;2022-12-18T12:27:16;102724.75;;;-0.41;87.03
75414;BME280;64758;52.122;5.404;2022-12-18T12:30:16;102718.41;;;-0.36;87.10
75414;BME280;64758;52.122;5.404;2022-12-18T12:32:59;102717.28;;;-0.30;86.70
75414;BME280;64758;52.122;5.404;2022-12-18T12:38:42;102708.66;;;-0.32;85.52
75414;BME280;64758;52.122;5.404;2022-12-18T12:41:20;102702.53;;;-0.31;85.02
75414;BME280;64758;52.122;5.404;2022-12-18T12:44:09;102705.13;;;-0.31;85.30
75414;BME280;64758;52.122;5.404;2022-12-18T12:46:40;102693.88;;;-0.32;84.77
75414;BME280;64758;52.122;5.404;2022-12-18T12:49:34;102689.34;;;-0.28;85.17
75414;BME280;64758;52.122;5.404;2022-12-18T12:52:11;102676.13;;;-0.25;85.64
75414;BME280;64758;52.122;5.404;2022-12-18T12:54:38;102680.38;;;-0.23;84.32
75414;BME280;64758;52.122;5.404;2022-12-18T12:57:14;102678.59;;;-0.22;85.13
75414;BME280;64758;52.122;5.404;2022-12-18T13:00:20;102672.25;;;-0.17;85.15
75414;BME280;64758;52.122;5.404;2022-12-18T13:08:08;102667.53;;;-0.09;84.56
75414;BME280;64758;52.122;5.404;2022-12-18T13:10:37;102669.34;;;-0.11;84.57
75414;BME280;64758;52.122;5.404;2022-12-18T13:13:07;102665.19;;;-0.15;84.52
75414;BME280;64758;52.122;5.404;2022-12-18T13:15:45;102670.34;;;-0.13;84.71
75414;BME280;64758;52.122;5.404;2022-12-18T13:18:17;102679.03;;;-0.13;84.29
75414;BME280;64758;52.122;5.404;2022-12-18T13:23:32;102676.19;;;-0.08;83.66
75414;BME280;64758;52.122;5.404;2022-12-18T13:28:54;102669.84;;;-0.03;84.33
75414;BME280;64758;52.122;5.404;2022-12-18T13:36:53;102650.06;;;-0.08;83.57
75414;BME280;64758;52.122;5.404;2022-12-18T13:39:30;102652.53;;;-0.05;84.35
75414;BME280;64758;52.122;5.404;2022-12-18T13:44:36;102639.78;;;-0.11;84.02
75414;BME280;64758;52.122;5.404;2022-12-18T13:47:32;102641.31;;;-0.07;83.31
75414;BME280;64758;52.122;5.404;2022-12-18T13:50:01;102630.09;;;-0.09;84.13
75414;BME280;64758;52.122;5.404;2022-12-18T13:52:35;102620.28;;;-0.04;83.35
75414;BME280;64758;52.122;5.404;2022-12-18T13:55:07;102610.91;;;-0.08;84.00
75414;BME280;64758;52.122;5.404;2022-12-18T13:57:41;102612.59;;;-0.07;83.40
75414;BME280;64758;52.122;5.404;2022-12-18T14:02:46;102610.00;;;-0.07;83.30
75414;BME280;64758;52.122;5.404;2022-12-18T14:07:53;102597.84;;;-0.08;83.23
75414;BME280;64758;52.122;5.404;2022-12-18T14:10:22;102602.00;;;-0.04;83.14
75414;BME280;64758;52.122;5.404;2022-12-18T14:13:10;102600.31;;;-0.05;83.20
75414;BME280;64758;52.122;5.404;2022-12-18T14:15:43;102597.84;;;-0.08;83.39
75414;BME280;64758;52.122;5.404;2022-12-18T14:20:44;102574.50;;;-0.11;83.60
75414;BME280;64758;52.122;5.404;2022-12-18T14:23:35;102579.66;;;-0.10;83.32
75414;BME280;64758;52.122;5.404;2022-12-18T14:28:48;102567.38;;;-0.08;83.69
75414;BME280;64758;52.122;5.404;2022-12-18T14:31:24;102573.28;;;-0.04;83.51
75414;BME280;64758;52.122;5.404;2022-12-18T14:33:52;102557.63;;;-0.04;83.33
75414;BME280;64758;52.122;5.404;2022-12-18T14:36:22;102569.75;;;-0.03;83.15
75414;BME280;64758;52.122;5.404;2022-12-18T14:38:54;102567.91;;;-0.02;82.32
75414;BME280;64758;52.122;5.404;2022-12-18T14:41:22;102558.31;;;-0.01;82.31
75414;BME280;64758;52.122;5.404;2022-12-18T14:43:51;102557.31;;;0.01;82.46
75414;BME280;64758;52.122;5.404;2022-12-18T14:46:38;102555.72;;;-0.01;82.75
75414;BME280;64758;52.122;5.404;2022-12-18T14:51:57;102546.97;;;0.00;82.31
75414;BME280;64758;52.122;5.404;2022-12-18T14:54:26;102548.81;;;-0.02;82.55
75414;BME280;64758;52.122;5.404;2022-12-18T14:57:02;102544.41;;;-0.02;82.37
75414;BME280;64758;52.122;5.404;2022-12-18T14:59:29;102545.47;;;-0.05;82.34
75414;BME280;64758;52.122;5.404;2022-12-18T15:02:22;102547.94;;;-0.03;81.73